sensor_id;sensor_type;location;lat;lon;timestamp;pressure;altitude;pressure_sealevel;temperature;humidity
3832;BME280;12460;42.662;23.288;2023-05-20T00:04:18;94854.75;;;14.33;64.44
3832;BME280;12460;42.662;23.288;2023-05-20T00:19:22;94845.47;;;13.96;64.66
3832;BME280;12460;42.662;23.288;2023-05-20T00:34:26;94846.03;;;13.94;65.28
3832;BME280;12460;42.662;23.288;2023-05-20T00:49:30;94818.16;;;13.81;65.70
3832;BME280;12460;42.662;23.288;2023-05-20T01:04:35;94807.59;;;13.82;65.22
3832;BME280;12460;42.662;23.288;2023-05-20T01:19:44;94820.88;;;13.89;65.44
3832;BME280;12460;42.662;23.288;2023-05-20T01:34:50;94831.16;;;13.67;65.61
3832;BME280;12460;42.662;23.288;2023-05-20T01:49:56;94812.06;;;13.58;66.20
3832;BME280;12460;42.662;23.288;2023-05-20T02:05:02;94810.00;;;13.59;65.83
3832;BME280;12460;42.662;23.288;2023-05-20T02:20:07;94800.13;;;13.50;66.35
3832;BME280;12460;42.662;23.288;2023-05-20T02:35:13;94791.25;;;13.37;66.57
3832;BME280;12460;42.662;23.288;2023-05-20T02:50:19;94801.31;;;13.30;66.19
3832;BME280;12460;42.662;23.288;2023-05-20T03:05:24;94795.19;;;13.24;66.71
3832;BME280;12460;42.662;23.288;2023-05-20T03:20:33;94824.66;;;13.74;66.63
3832;BME280;12460;42.662;23.288;2023-05-20T03:35:58;94822.31;;;16.75;59.07
3832;BME280;12460;42.662;23.288;2023-05-20T03:51:03;94835.00;;;19.63;52.05
3832;BME280;12460;42.662;23.288;2023-05-20T04:06:08;94830.19;;;21.34;47.50
3832;BME280;12460;42.662;23.288;2023-05-20T04:21:12;94851.63;;;21.63;45.35
3832;BME280;12460;42.662;23.288;2023-05-20T04:36:18;94825.59;;;22.44;44.15
3832;BME280;12460;42.662;23.288;2023-05-20T04:51:23;94855.41;;;23.95;41.65
3832;BME280;12460;42.662;23.288;2023-05-20T05:06:27;94845.84;;;24.96;39.35
3832;BME280;12460;42.662;23.288;2023-05-20T05:21:33;94851.75;;;25.01;38.53
3832;BME280;12460;42.662;23.288;2023-05-20T05:36:39;94825.19;;;25.22;37.88
3832;BME280;12460;42.662;23.288;2023-05-20T05:51:43;94828.47;;;25.93;36.04
3832;BME280;12460;42.662;23.288;2023-05-20T06:06:48;94821.00;;;27.20;35.47
3832;BME280;12460;42.662;23.288;2023-05-20T06:21:55;94808.56;;;27.39;34.49
3832;BME280;12460;42.662;23.288;2023-05-20T06:37:00;94797.88;;;27.71;33.51
3832;BME280;12460;42.662;23.288;2023-05-20T06:52:06;94774.34;;;26.34;34.00
3832;BME280;12460;42.662;23.288;2023-05-20T07:07:10;94789.53;;;24.91;35.42
3832;BME280;12460;42.662;23.288;2023-05-20T07:22:21;94789.56;;;25.11;34.37
3832;BME280;12460;42.662;23.288;2023-05-20T07:37:31;94782.16;;;25.45;32.90
3832;BME280;12460;42.662;23.288;2023-05-20T07:52:38;94782.03;;;26.26;33.25
3832;BME280;12460;42.662;23.288;2023-05-20T08:07:59;94757.78;;;27.85;30.47
3832;BME280;12460;42.662;23.288;2023-05-20T08:23:12;94762.38;;;27.41;30.47
3832;BME280;12460;42.662;23.288;2023-05-20T08:38:18;94749.91;;;28.47;30.04
3832;BME280;12460;42.662;23.288;2023-05-20T08:53:24;94756.84;;;28.64;29.84
3832;BME280;12460;42.662;23.288;2023-05-20T09:08:29;94755.69;;;27.09;32.11
3832;BME280;12460;42.662;23.288;2023-05-20T09:23:36;94738.38;;;28.17;30.59
3832;BME280;12460;42.662;23.288;2023-05-20T09:38:41;94724.63;;;27.88;31.18
3832;BME280;12460;42.662;23.288;2023-05-20T09:53:45;94705.81;;;27.59;32.11
3832;BME280;12460;42.662;23.288;2023-05-20T10:09:06;94695.22;;;25.73;33.63
3832;BME280;12460;42.662;23.288;2023-05-20T10:24:31;94675.22;;;25.35;34.01
3832;BME280;12460;42.662;23.288;2023-05-20T10:39:36;94652.03;;;25.75;33.08
3832;BME280;12460;42.662;23.288;2023-05-20T10:54:46;94637.63;;;25.10;33.62
3832;BME280;12460;42.662;23.288;2023-05-20T11:09:54;94643.47;;;25.33;33.16
3832;BME280;12460;42.662;23.288;2023-05-20T11:25:04;94605.22;;;24.09;35.39
3832;BME280;12460;42.662;23.288;2023-05-20T11:40:10;94582.47;;;23.97;36.22
3832;BME280;12460;42.662;23.288;2023-05-20T11:55:16;94583.41;;;23.47;37.00
3832;BME280;12460;42.662;23.288;2023-05-20T12:10:21;94568.06;;;22.54;38.43
3832;BME280;12460;42.662;23.288;2023-05-20T12:25:26;94577.28;;;21.73;40.93
3832;BME280;12460;42.662;23.288;2023-05-20T12:40:31;94637.66;;;20.21;43.43
3832;BME280;12460;42.662;23.288;2023-05-20T12:55:36;94630.47;;;19.54;45.56
3832;BME280;12460;42.662;23.288;2023-05-20T13:10:40;94597.78;;;20.37;44.22
3832;BME280;12460;42.662;23.288;2023-05-20T13:25:44;94568.47;;;21.37;41.43
3832;BME280;12460;42.662;23.288;2023-05-20T13:40:48;94558.34;;;21.50;41.17
3832;BME280;12460;42.662;23.288;2023-05-20T13:55:53;94538.59;;;20.53;44.92
3832;BME280;12460;42.662;23.288;2023-05-20T14:10:56;94513.88;;;20.73;45.85
3832;BME280;12460;42.662;23.288;2023-05-20T14:26:01;94517.41;;;21.16;44.17
3832;BME280;12460;42.662;23.288;2023-05-20T14:41:06;94517.78;;;21.09;43.90
3832;BME280;12460;42.662;23.288;2023-05-20T14:56:11;94496.47;;;21.58;42.63
3832;BME280;12460;42.662;23.288;2023-05-20T15:11:15;94481.25;;;21.23;43.04
3832;BME280;12460;42.662;23.288;2023-05-20T15:26:20;94476.31;;;20.36;45.87
3832;BME280;12460;42.662;23.288;2023-05-20T15:41:25;94468.94;;;20.17;45.91
3832;BME280;12460;42.662;23.288;2023-05-20T15:56:30;94489.72;;;20.47;42.71
3832;BME280;12460;42.662;23.288;2023-05-20T16:11:35;94485.59;;;19.66;48.81
3832;BME280;12460;42.662;23.288;2023-05-20T16:26:39;94486.34;;;19.53;50.05
3832;BME280;12460;42.662;23.288;2023-05-20T16:41:44;94487.81;;;19.54;49.73
3832;BME280;12460;42.662;23.288;2023-05-20T16:56:49;94494.31;;;19.29;49.54
3832;BME280;12460;42.662;23.288;2023-05-20T17:11:54;94498.81;;;19.07;47.64
3832;BME280;12460;42.662;23.288;2023-05-20T17:26:59;94527.03;;;18.90;45.59
3832;BME280;12460;42.662;23.288;2023-05-20T17:42:04;94521.47;;;18.66;46.31
3832;BME280;12460;42.662;23.288;2023-05-20T17:57:09;94535.25;;;18.58;46.42
3832;BME280;12460;42.662;23.288;2023-05-20T18:12:14;94551.44;;;18.67;45.18
3832;BME280;12460;42.662;23.288;2023-05-20T18:27:18;94541.97;;;18.51;46.30
3832;BME280;12460;42.662;23.288;2023-05-20T18:42:23;94535.16;;;18.45;46.51
3832;BME280;12460;42.662;23.288;2023-05-20T18:57:28;94569.59;;;18.37;47.72
3832;BME280;12460;42.662;23.288;2023-05-20T19:12:34;94578.97;;;18.03;49.16
3832;BME280;12460;42.662;23.288;2023-05-20T19:27:37;94604.94;;;17.97;49.83
3832;BME280;12460;42.662;23.288;2023-05-20T19:42:42;94609.03;;;17.60;53.39
3832;BME280;12460;42.662;23.288;2023-05-20T19:57:47;94600.69;;;17.40;55.64
3832;BME280;12460;42.662;23.288;2023-05-20T20:12:56;94586.16;;;17.02;58.93
3832;BME280;12460;42.662;23.288;2023-05-20T20:28:00;94567.91;;;16.72;60.66
3832;BME280;12460;42.662;23.288;2023-05-20T20:43:06;94560.94;;;16.96;60.91
3832;BME280;12460;42.662;23.288;2023-05-20T20:58:11;94540.72;;;17.13;60.53
3832;BME280;12460;42.662;23.288;2023-05-20T21:13:17;94553.06;;;17.06;60.68
3832;BME280;12460;42.662;23.288;2023-05-20T21:28:21;94533.44;;;17.10;61.30
3832;BME280;12460;42.662;23.288;2023-05-20T21:43:26;94537.25;;;17.03;61.53
3832;BME280;12460;42.662;23.288;2023-05-20T21:58:31;94530.53;;;16.87;63.01
3832;BME280;12460;42.662;23.288;2023-05-20T22:13:37;94512.31;;;16.57;64.00
3832;BME280;12460;42.662;23.288;2023-05-20T22:28:46;94498.66;;;16.44;64.53
3832;BME280;12460;42.662;23.288;2023-05-20T22:43:50;94481.31;;;16.29;64.26
3832;BME280;12460;42.662;23.288;2023-05-20T22:58:55;94491.84;;;16.38;64.53
3832;BME280;12460;42.662;23.288;2023-05-20T23:14:00;94452.63;;;16.46;64.11
3832;BME280;12460;42.662;23.288;2023-05-20T23:29:05;94440.94;;;16.51;64.00
3832;BME280;12460;42.662;23.288;2023-05-20T23:44:11;94427.22;;;16.48;64.38
3832;BME280;12460;42.662;23.288;2023-05-20T23:59:15;94401.50;;;16.23;64.10
